Flughafen METAR Reports

 

EDBC - Cochstedt Arpt, Germany
Distance from station: SSW 28km
aktuell: 18/04/2024 00:20
stark bewölkt
stark bewölkt
 Wind von WNW
Wind: WNW 9 km/h
Temperatur: 4°C
Wind Chill: 2°C
Taupunkt: 2°C
Luftfeuchte: 87%
Luftdruck: 1012 hPa
Clouds: stark bewölkt
Visibility: 10 km
Cloud details: Few Clouds 2652 m
teilweise bewölkt 3353 m
stark bewölkt 7315 m
2024/04/17 22:20 EDBC 172220Z AUTO 30005KT 9999 // FEW087/// SCT110/// BKN240/// 04/02 Q1012
EDDP - Leipzig/Schkeudi, Germany
Distance from station: SSO 85km
aktuell: 18/04/2024 00:20
Few Clouds
Few Clouds
 Wind von NW
Wind: NW 9 km/h
Temperatur: 5°C
Wind Chill: 3°C
Taupunkt: 3°C
Luftfeuchte: 87%
Luftdruck: 1010 hPa
Clouds: Few Clouds
Visibility: 10 km
Cloud details: Few Clouds 1219 m
2024/04/17 22:20 EDDP 172220Z AUTO 31005KT 9999 FEW040 05/03 Q1010 NOSIG
 
EDVE - Braunschweig, Germany
Distance from station: WNW 75km
aktuell: 18/04/2024 00:20
stark bewölkt
stark bewölkt
 Wind von WNW
Wind: WNW 7 km/h
Temperatur: 4°C
Wind Chill: 2°C
Taupunkt: 2°C
Luftfeuchte: 87%
Luftdruck: 1012 hPa
Clouds: stark bewölkt
Visibility: 10 km
Cloud details: stark bewölkt 1615 m
2024/04/17 22:20 EDVE 172220Z AUTO 30004KT 9999 BKN053/// 04/02 Q1012
EDDB - Berlin/Schonefeld, Germany
Distance from station: ONO 138km
aktuell: 18/04/2024 00:20
klar
klar
 Wind von NNO
Wind: NNO 9 km/h
Temperatur: 5°C
Wind Chill: 3°C
Taupunkt: 2°C
Luftfeuchte: 81%
Luftdruck: 1011 hPa
Zusammenfassung: klar
Visibility: greater than 10 km
2024/04/17 22:20 EDDB 172220Z AUTO 02005KT CAVOK 05/02 Q1011 NOSIG
 
EDDV - Hannover, Germany
Distance from station: WNW 136km
aktuell: 18/04/2024 00:20
stark bewölkt
stark bewölkt
 Wind von varies
Wind: varies 4 km/h
Temperatur: 5°C
Taupunkt: 3°C
Luftfeuchte: 87%
Luftdruck: 1012 hPa
Clouds: stark bewölkt
Visibility: 10 km
Cloud details: stark bewölkt 1219 m
2024/04/17 22:20 EDDV 172220Z AUTO VRB02KT 9999 BKN040 05/03 Q1012
EDDE - Erfurt/Bindersle, Germany
Distance from station: SSW 129km
aktuell: 18/04/2024 00:20
sehr leichter Niederschlag, geschlossene Wolkendecke
sehr leichter Niederschlag, geschlossene Wolkendecke
 Wind von W
Wind: W 7 km/h
Temperatur: 3°C
Wind Chill: 1°C
Taupunkt: 2°C
Luftfeuchte: 93%
Luftdruck: 1011 hPa
Zusammenfassung: sehr leichter Niederschlag
Clouds: geschlossene Wolkendecke
Visibility: 10 km
Cloud details: Few Clouds 183 m
stark bewölkt 945 m
geschlossene Wolkendecke 1158 m
2024/04/17 22:20 EDDE 172220Z AUTO 26004KT 9999 -RA FEW006 BKN031 OVC038 03/02 Q1011
 
EDDC - Dresden/Klotzsch, Germany
Distance from station: SO 183km
aktuell: 18/04/2024 00:20
klar
klar
 Wind von WNW
Wind: WNW 4 km/h
Temperatur: 3°C
Taupunkt: 1°C
Luftfeuchte: 87%
Luftdruck: 1010 hPa
Zusammenfassung: klar
Visibility: greater than 10 km
2024/04/17 22:20 EDDC 172220Z AUTO 30002KT CAVOK 03/01 Q1010
EDOP - Schwerin-Parchim, Germany
Distance from station: N 151km
aktuell: 31/03/2019 16:50
NOT Current
klar
klar
 Wind von N
Wind: N 19 km/h
Temperatur: 9°C
Wind Chill: 6°C
Taupunkt: -6°C
Luftfeuchte: 34%
Luftdruck: 1025 hPa
Zusammenfassung: klar
Visibility: greater than 10 km
2019/03/31 14:50 EDOP 311450Z 35010KT 310V020 CAVOK 09/M06 Q1025
 
EDHI - Hamburg/Finkenwe, Germany
Distance from station: NW 199km
aktuell: 18/04/2024 00:20
stark bewölkt
stark bewölkt
 Wind von N
Wind: N 6 km/h
Temperatur: 6°C
Taupunkt: 3°C
Luftfeuchte: 81%
Luftdruck: 1013 hPa
Clouds: stark bewölkt
Visibility: 10 km
Cloud details: stark bewölkt 1676 m
stark bewölkt 6706 m
2024/04/17 22:20 EDHI 172220Z AUTO 36003KT 330V030 9999 // BKN055/// BKN220/// 06/03 Q1013